• Join FlightAware (Why Join?)
  • Login
  • US Flag 
01:01AM EDT


 

Airport Tracker/Info


-or-


 

Live Flight TrackerFlight Track Log ✈ 9Y-BGI ✈ 21-Apr-2013 ✈ MKJP / KIN - CYYZ

Flight Track Log - Related Links

Times and Time Zones

All times are in EDT time to prevent confusion due to time zone crossing. See the 9Y-BGI flight status page for this flight to view local times or setup timezone preferences in your user account.

Time Position Orientation Groundspeed Altitude Reporting Facility
EDT Latitude Longitude Course Direction KTS MPH feet Rate Location/Type
11:06AM 18.8422 -76.8613 356° North  Level FlightAware Approximate
11:07AM 18.9555 -76.8706 356° North  Level FlightAware Approximate
11:08AM 19.0688 -76.8799 356° North  Level FlightAware Approximate
11:09AM 19.1821 -76.8892 356° North  Level FlightAware Approximate
11:10AM 19.2954 -76.8986 356° North  Level FlightAware Approximate
11:11AM 19.4087 -76.9079 356° North  Level FlightAware Approximate
11:12AM 19.5220 -76.9173 356° North  Level FlightAware Approximate
11:13AM 19.6353 -76.9266 356° North  Level FlightAware Approximate
11:14AM 19.7281 -76.9343 355° North  Level FlightAware Approximate
11:15AM 19.8414 -76.9442 355° North  Level FlightAware Approximate
11:16AM 19.9547 -76.9541 355° North  Level FlightAware Approximate
11:17AM 20.0679 -76.9640 355° North  Level FlightAware Approximate
11:18AM 20.1812 -76.9739 355° North  Level FlightAware Approximate
11:19AM 20.2945 -76.9838 355° North  Level FlightAware Approximate
11:20AM 20.4077 -76.9938 355° North  Level FlightAware Approximate
11:21AM 20.5210 -77.0037 355° North  Level FlightAware Approximate
11:22AM 20.6343 -77.0137 355° North  Level FlightAware Approximate
11:23AM 20.7476 -77.0237 355° North  Level FlightAware Approximate
11:24AM 20.8608 -77.0337 355° North  Level FlightAware Approximate
11:25AM 20.9741 -77.0437 355° North  Level FlightAware Approximate
11:26AM 21.0873 -77.0537 355° North  Level FlightAware Approximate
11:27AM 21.2006 -77.0638 355° North  Level FlightAware Approximate
11:28AM 21.3139 -77.0738 355° North  Level FlightAware Approximate
11:29AM 21.4271 -77.0839 355° North  Level FlightAware Approximate
11:30AM 21.5404 -77.0940 355° North  Level FlightAware Approximate
11:31AM 21.6536 -77.1041 355° North  Level FlightAware Approximate
11:32AM 21.7669 -77.1143 355° North  Level FlightAware Approximate
11:33AM 21.8802 -77.1244 355° North  Level FlightAware Approximate
11:34AM 21.9934 -77.1346 355° North  Level FlightAware Approximate
11:35AM 22.1067 -77.1447 355° North  Level FlightAware Approximate
11:36AM 22.2199 -77.1549 355° North  Level FlightAware Approximate
11:37AM 22.3332 -77.1651 355° North  Level FlightAware Approximate
11:38AM 22.4465 -77.1753 355° North  Level FlightAware Approximate
11:39AM 22.5597 -77.1856 355° North  Level FlightAware Approximate
11:40AM 22.6730 -77.1958 355° North  Level FlightAware Approximate
11:41AM 22.7862 -77.2061 355° North  Level FlightAware Approximate
11:42AM 22.8995 -77.2164 355° North  Level FlightAware Approximate
11:43AM 23.0127 -77.2267 355° North  Level FlightAware Approximate
11:43AM 22.8069 -77.3186 355° North 461 531 34,000  Level Miami Center
11:44AM 23.1260 -77.2370 355° North  Level FlightAware Approximate
11:44AM 22.9261 -77.3236 358° North 455 524 34,000  Level Miami Center
11:45AM 23.2392 -77.2474 355° North  Level FlightAware Approximate
11:45AM 23.0492 -77.3331 356° North 437 503 34,000  Level Miami Center
11:46AM 23.3525 -77.2577 355° North  Level FlightAware Approximate
11:46AM 23.1683 -77.3381 358° North 432 497 34,000  Level Miami Center
11:47AM 23.4658 -77.2667 North  Level FlightAware Approximate
11:47AM 23.2894 -77.3475 356° North 432 497 34,000  Level Miami Center
11:48AM 23.5794 -77.2667 North  Level FlightAware Approximate
11:48AM 23.4106 -77.3547 357° North 427 491 34,000  Level Miami Center
11:49AM 23.6926 -77.2773 355° North  Level FlightAware Approximate
11:49AM 23.5278 -77.3619 357° North 433 498 34,000  Level Miami Center
11:50AM 23.6342 -77.3647 359° North 428 493 34,000  Level Miami Center
11:51AM 23.7556 -77.3719 357° North 428 493 34,000  Level Miami Center
11:53AM 23.9088 -77.3797 357° North  Level FlightAware Approximate
11:53AM 23.9958 -77.3911 357° North 423 487 34,000  Level Miami Center
11:54AM 24.1147 -77.3939 359° North 423 487 34,000  Level Miami Center
11:55AM 24.2319 -77.4011 357° North 423 487 34,000  Level Miami Center
11:56AM 24.3531 -77.4064 358° North 423 487 34,000  Level Miami Center
11:57AM 24.4722 -77.4158 356° North 423 487 34,000  Level Miami Center
11:58AM 24.5953 -77.4189 359° North 423 487 34,000  Level Miami Center
11:59AM 24.7144 -77.4283 356° North 423 487 34,000  Level Miami Center
12:00PM 24.8314 -77.4358 357° North 423 487 34,000  Level Miami Center
12:01PM 24.9611 -77.4433 357° North 429 494 34,000  Level Miami Center
12:02PM 25.0822 -77.4486 358° North 441 507 34,000  Level Miami Center
12:03PM 25.2075 -77.4583 356° North 446 513 34,000  Level Miami Center
12:04PM 25.3289 -77.4658 357° North 440 506 34,000  Level Miami Center
12:05PM 25.4500 -77.4733 357° North 435 501 34,000  Level Miami Center
12:06PM 25.5836 -77.4808 357° North 435 501 34,000  Level Miami Center
12:07PM 25.7069 -77.4883 357° North 435 501 34,000 60 Level Miami Center
12:08PM 25.8281 -77.4958 357° North 440 506 34,200 480 Climbing Miami Center
12:09PM 25.9514 -77.5011 358° North 440 506 35,000 360 Climbing Miami Center
12:10PM 26.0767 -77.5089 357° North 440 506 35,000  Level Miami Center
12:11PM 26.1978 -77.5189 356° North 440 506 35,000  Level Miami Center
12:12PM 26.3231 -77.5217 359° North 440 506 35,000  Level Miami Center
12:13PM 26.4486 -77.5294 357° North 440 506 35,000  Level Miami Center
12:14PM 26.5717 -77.5394 356° North 440 506 35,000  Level Miami Center
12:15PM 26.6950 -77.5494 356° North 440 506 35,000  Level Miami Center
12:16PM 26.8181 -77.5572 357° North 440 506 35,000  Level Miami Center
12:17PM 26.9414 -77.5625 358° North 440 506 35,000  Level Miami Center
12:18PM 27.0667 -77.5750 355° North 440 506 35,000  Level Miami Center
12:19PM 27.1942 -77.5758 360° North 440 506 35,000  Level Miami Center
12:20PM 27.3194 -77.5858 356° North 440 506 35,000  Level Miami Center
12:21PM 27.4322 -77.5911 358° North 445 512 35,000  Level Miami Center
12:22PM 27.5594 -77.6014 356° North 445 512 35,000 -60 Level Miami Center
12:23PM 27.6869 -77.6117 356° North 445 512 34,900 -60 Descending Miami Center
12:24PM 27.8164 -77.6172 358° North 453 521 34,900  Level Miami Center
12:25PM 27.9372 -77.6250 357° North 451 519 34,900  Level Miami Center
12:26PM 28.0647 -77.6328 357° North 457 526 34,900  Level Miami Center
12:27PM 28.1983 -77.6408 357° North 457 526 34,900  Level Miami Center
12:28PM 28.3214 -77.6464 358° North 455 524 34,900  Level Miami Center
12:29PM 28.4611 -77.6544 357° North 463 533 34,900  Level Miami Center
12:30PM 28.5928 -77.6600 358° North 504 580 34,900  Level Miami Center
12:31PM 28.7367 -77.6706 356° North 460 529 34,900  Level Miami Center
12:32PM 28.8536 -77.6714 360° North 457 526 35,000  Climbing Miami Center
12:33PM 28.9892 -77.6819 356° North 468 539 34,900 -60 Descending Miami Center
12:34PM 29.1206 -77.6878 358° North 468 539 34,900  Level Miami Center
12:35PM 29.2478 -77.6933 358° North 468 539 34,900  Level Miami Center
12:36PM 29.3769 -77.7014 357° North 468 539 34,900  Level Miami Center
12:38PM 29.6497 -77.7097 358° North 458 527 34,900  Level Jacksonville Center
12:39PM 29.7794 -77.7150 358° North 471 542 35,000  Climbing Jacksonville Center
12:40PM 29.9156 -77.7244 357° North 477 549 34,900 -60 Descending Jacksonville Center
12:41PM 30.0472 -77.7292 358° North 472 543 34,900  Level Jacksonville Center
12:42PM 30.1708 -77.7394 356° North 480 552 34,900  Level Jacksonville Center
12:43PM 30.3147 -77.7367 North 485 558 34,900  Level Jacksonville Center
12:44PM 30.4483 -77.7439 357° North 481 554 34,900  Level Jacksonville Center
12:45PM 30.5825 -77.7558 356° North 481 554 34,900  Level Jacksonville Center
12:46PM 30.7161 -77.7558 360° North 481 554 34,900  Level Jacksonville Center
12:47PM 30.8522 -77.7678 356° North 481 554 34,900  Level Jacksonville Center
12:48PM 30.9883 -77.7797 356° North 481 554 34,900  Level Jacksonville Center
12:49PM 31.1225 -77.7919 356° North 481 554 34,900  Level Jacksonville Center
12:50PM 31.2564 -77.8017 356° North 481 554 34,900  Level Jacksonville Center
12:51PM 31.3922 -77.8064 358° North 481 554 34,900  Level Jacksonville Center
12:52PM 31.5303 -77.8136 357° North 481 554 34,900  Level Jacksonville Center
12:53PM 31.6642 -77.8183 358° North 481 554 34,900  Level Jacksonville Center
12:54PM 31.8022 -77.8256 357° North 486 559 34,900  Level Jacksonville Center
12:55PM 31.9381 -77.8328 357° North 486 559 34,900  Level Jacksonville Center
12:56PM 32.0742 -77.8425 357° North 486 559 34,900  Level Jacksonville Center
12:57PM 32.2081 -77.8522 356° North 486 559 34,900  Level Jacksonville Center
12:58PM 32.3397 -77.8572 358° North 481 554 34,900  Level Jacksonville Center
12:59PM 32.4739 -77.8669 357° North 481 554 34,900  Level Jacksonville Center
01:00PM 32.6056 -77.8769 356° North 481 554 34,900  Level Jacksonville Center
01:01PM 32.7394 -77.8844 357° North 481 554 34,900  Level Jacksonville Center
01:02PM 32.8711 -77.8894 358° North 481 554 34,900  Level Jacksonville Center
01:03PM 33.0050 -77.8967 357° North 481 554 34,900  Level Jacksonville Center
01:05PM 33.2211 -77.9100 357° North 479 551 34,900  Level Washington Center
01:06PM 33.3544 -77.9186 357° North 474 545 34,900  Level Washington Center
01:07PM 33.4836 -77.9269 357° North 474 545 34,900  Level Washington Center
01:08PM 33.6169 -77.9358 357° North 474 545 34,900  Level Washington Center
01:09PM 33.7503 -77.9419 358° North 474 545 34,900  Level Washington Center
01:10PM 33.8836 -77.9508 357° North 474 545 34,900  Level Washington Center
01:11PM 34.0317 -77.9600 357° North 479 551 35,000  Climbing Washington Center
01:12PM 34.1675 -77.9414 North 485 558 35,000 -60 Level Washington Center
01:13PM 34.3053 -77.9453 359° North 485 558 34,900 -60 Descending Washington Center
01:14PM 34.4406 -77.9567 356° North 485 558 34,900  Level Washington Center
01:15PM 34.5739 -77.9656 357° North 485 558 34,900  Level Washington Center
01:16PM 34.7114 -77.9747 357° North 485 558 34,900  Level Washington Center
01:17PM 34.8303 -77.9806 358° North 479 551 35,000  Climbing Washington Center
01:18PM 34.9636 -77.9919 356° North 479 551 35,000  Level Washington Center
01:19PM 35.0989 -78.0011 357° North 479 551 35,000  Level Washington Center
01:20PM 35.2344 -78.0103 357° North 479 551 35,000  Level Washington Center
01:21PM 35.3739 -78.0222 356° North 479 551 35,000  Level Washington Center
01:22PM 35.5072 -78.0314 357° North 479 551 35,000  Level Washington Center
01:23PM 35.6450 -78.0406 357° North 479 551 35,000  Level Washington Center
01:24PM 35.7803 -78.0525 356° North 479 551 35,000  Level Washington Center
01:25PM 35.9136 -78.0644 356° North 479 551 35,000  Level Washington Center
01:26PM 36.0469 -78.0736 357° North 479 551 35,000  Level Washington Center
01:27PM 36.1803 -78.0831 357° North 479 551 35,000  Level Washington Center
01:28PM 36.3156 -78.0950 356° North 479 551 35,000  Level Washington Center
01:29PM 36.4572 -78.1072 356° North 471 542 35,000  Level Washington Center
01:30PM 36.5886 -78.1142 358° North 471 542 35,000  Level Washington Center
01:31PM 36.7197 -78.1261 356° North 471 542 35,000  Level Washington Center
01:32PM 36.8550 -78.1358 357° North 471 542 35,000  Level Washington Center
01:33PM 36.9864 -78.1453 357° North 477 549 35,000  Level Washington Center
01:34PM 37.1217 -78.1550 357° North 477 549 35,000  Level Washington Center
01:35PM 37.2531 -78.1644 357° North 477 549 35,000  Level Washington Center
01:36PM 37.3739 -78.1739 356° North 477 549 35,000  Level Washington Center
01:37PM 37.5092 -78.1864 356° North 477 549 35,000  Level Washington Center
01:38PM 37.6425 -78.1961 357° North 477 549 35,000  Level Washington Center
01:39PM 37.7778 -78.2086 356° North 477 549 35,000  Level Washington Center
01:40PM 37.9256 -78.2164 358° North 477 549 35,000  Level Washington Center
01:41PM 38.0544 -78.2342 354° North 477 549 35,000  Level Washington Center
01:42PM 38.1858 -78.2414 358° North 472 543 35,000  Level Washington Center
01:43PM 38.3189 -78.2514 357° North 472 543 35,000  Level Washington Center
01:44PM 38.4522 -78.2642 356° North 477 549 35,000  Level Washington Center
01:45PM 38.5853 -78.2742 357° North 477 549 35,000  Level Washington Center
01:46PM 38.7206 -78.2844 357° North 477 549 35,000  Level Washington Center
01:47PM 38.8539 -78.2947 357° North 477 549 35,000  Level Washington Center
01:48PM 38.9850 -78.3022 357° North 477 549 35,000  Level Washington Center
01:49PM 39.1203 -78.3153 356° North 477 549 35,000  Level Washington Center
01:50PM 39.2514 -78.3256 357° North 477 549 35,000  Level Washington Center
01:52PM 39.4469 -78.3439 356° North 483 556 35,000  Level Cleveland Center
01:53PM 39.5764 -78.3531 357° North 477 549 35,000  Level Cleveland Center
01:54PM 39.7058 -78.3622 357° North 472 543 35,000  Level Cleveland Center
01:55PM 39.8311 -78.3772 355° North 460 529 35,000  Level Cleveland Center
01:56PM 39.9606 -78.3864 357° North 460 529 35,000  Level Cleveland Center
01:57PM 40.0919 -78.3983 356° North 465 535 35,000  Level Cleveland Center
01:58PM 40.2236 -78.4078 357° North 465 535 35,000  Level Cleveland Center
01:59PM 40.3531 -78.4200 356° North 465 535 35,000  Level Cleveland Center
02:00PM 40.4847 -78.4292 357° North 465 535 35,000  Level Cleveland Center
02:01PM 40.6161 -78.4414 356° North 465 535 35,000 -540 Level Cleveland Center
02:02PM 40.7456 -78.4536 356° North 465 535 34,000 -540 Descending Cleveland Center
02:03PM 40.8772 -78.4631 357° North 460 529 34,000  Level Cleveland Center
02:04PM 41.0067 -78.4756 356° North 460 529 34,000  Level Cleveland Center
02:05PM 41.1361 -78.4878 356° North 460 529 34,000  Level Cleveland Center
02:06PM 41.2656 -78.4975 357° North 460 529 34,000  Level Cleveland Center
02:07PM 41.4056 -78.5097 356° North 460 529 34,000  Level Cleveland Center
02:08PM 41.5267 -78.5197 356° North 460 529 34,000 -540 Level Cleveland Center
02:09PM 41.6539 -78.5294 357° North 460 529 33,000 -960 Descending Cleveland Center
02:10PM 41.7814 -78.5447 355° North 460 529 32,100 -540 Descending Cleveland Center
02:11PM 41.9131 -78.5575 356° North 460 529 32,000 -60 Descending Cleveland Center
02:12PM 42.0425 -78.5672 357° North 460 529 32,000  Level Cleveland Center
02:13PM 42.1844 -78.5794 356° North 469 540 32,000 -60 Level Cleveland Center
02:14PM 42.3117 -78.5925 356° North 463 533 31,900 -600 Descending Cleveland Center
02:15PM 42.4369 -78.6025 357° North 457 526 30,800 -1,080 Descending Cleveland Center
02:16PM 42.5581 -78.6128 356° North 452 520 29,800 -1,020 Descending Cleveland Center
02:17PM 42.6811 -78.6258 356° North 441 507 28,800 -1,020 Descending Cleveland Center
02:18PM 42.7939 -78.6336 357° North 428 493 27,800 -1,380 Descending Cleveland Center
02:19PM 42.9067 -78.6500 354° North 415 478 26,100 -1,860 Descending Cleveland Center
02:20PM 42.9792 -78.7386 318° Northwest 351 404 24,100 -4,560 Descending Cleveland Center
02:21PM 43.0369 -78.8450 307° West 343 395 17,000 -7,140 Descending Cleveland Center